Deunquat, Ohio
Current Conditions -  °F | °C
As of 1:53 AM on Monday 24 Nov 2014 (Local Time) from KMNN Reporting Station
Overcast Overcast  
Wind Chill: 14°   Ceiling: 1900
Heat Index: 14°   Visibility: 10mi
Dew Point: 12°   Wind: 26mph
Humidity: 84%   Direction: 180°S
Pressure: 29.21"   Gusts: 37mph
Location:  40.948°N, 83.1346°W
Report Text: KMNN 240653Z AUTO 18023G32KT 10SM BKN019 OVC024 14/12 A2921 RMK AO2 PK WND 19036/0629 RAE0556B32E43 SLP891 P0000 T01440117 TSNO
Loading
Personal Weather Stations






























Interactive Weather Map New forecast layout! Learn more

10-Day Weather Forecast

Advertisements
Track Severe Weather on mobile